This is the latest recevied weather packets stored in our database for station/object KB4KY. If no packets are shown the sender has not sent any weather packets the latest 10 day(s).
| Time | Temp. | Humidity | Pressure | Rain* | Wind** | Luminosity | Snow |
|---|---|---|---|---|---|---|---|
| 1777851602 | 16.67° C | 46% | 1012.7 hPa | 0 mm | - | - | - |
| 1777851302 | 17.22° C | 49% | 1012.8 hPa | 0 mm | - | - | - |
| 1777851291 | 17.78° C | 48% | 1012.8 hPa | 0 mm | - | - | - |
| 1777851002 | 17.78° C | 48% | 1012.8 hPa | 0 mm | - | - | - |
| 1777850951 | 19.44° C | 42% | 1013.5 hPa | 0 mm | - | - | - |
| 1777850700 | 17.78° C | 47% | 1013 hPa | 0 mm | - | - | - |
| 1777850101 | 18.33° C | 46% | 1013.2 hPa | 0 mm | - | - | - |
| 1777849799 | 18.89° C | 44% | 1013.2 hPa | 0 mm | - | - | - |
| 1777849567 | 18.89° C | 43% | 1013.2 hPa | 0 mm | - | - | - |
| 1777849500 | 18.89° C | 43% | 1013.2 hPa | 0 mm | - | - | - |
| 1777849198 | 18.89° C | 42% | 1013.3 hPa | 0 mm | - | - | - |
| 1777849057 | 19.44° C | 41% | 1013.6 hPa | 0 mm | - | - | - |
| 1777849057 | 19.44° C | 42% | 1013.5 hPa | 0 mm | - | - | - |
| 1777848898 | 19.44° C | 42% | 1013.5 hPa | 0 mm | - | - | - |
| 1777848636 | 19.44° C | 41% | 1013.5 hPa | 0 mm | - | - | - |
| 1777848598 | 19.44° C | 41% | 1013.6 hPa | 0 mm | - | - | - |
| 1777848299 | 19.44° C | 43% | 1013.6 hPa | 0 mm | - | - | - |
| 1777847999 | 19.44° C | 41% | 1013.5 hPa | 0 mm | - | - | - |
| 1777847745 | 19.44° C | 43% | 1013.5 hPa | 0 mm | - | - | - |
| 1777847698 | 19.44° C | 43% | 1013.5 hPa | 0 mm | - | - | - |
| 1777847435 | 20° C | 42% | 1013.4 hPa | 0 mm | - | - | - |
| 1777847399 | 20° C | 42% | 1013.4 hPa | 0 mm | - | - | - |
| 1777847265 | 20° C | 40% | 1013.5 hPa | 0 mm | - | - | - |
| 1777847098 | 20° C | 40% | 1013.5 hPa | 0 mm | - | - | - |
| 1777846799 | 20° C | 38% | 1013.7 hPa | 0 mm | - | - | - |
* Rain latest hour (hover to see other rain measurements)
** Current wind speed in m/s (hover to see current wind gust speed)